Time;durP1;ratioP1;P1;durP2;ratioP2;P2;SDS_P1;SDS_P2;PMS_P1;PMS_P2;Temp;Humidity;BMP_temperature;BMP_pressure;BME280_temperature;BME280_humidity;BME280_pressure;Samples;Min_cycle;Max_cycle;Signal;HPM_P1;HPM_P2
2023/05/18 00:02:05;;;;;;;1999.90;999.90;;;10.20;99.90;;;;;;5071979;28;20163;-79
2023/05/18 00:04:33;;;;;;;1999.90;999.90;;;10.20;99.90;;;;;;5072637;28;20025;-79
2023/05/18 00:07:02;;;;;;;1999.90;999.90;;;10.10;99.90;;;;;;5066161;28;20045;-79
2023/05/18 00:09:33;;;;;;;1999.90;999.90;;;10.10;99.90;;;;;;5052356;28;20039;-73
2023/05/18 00:11:59;;;;;;;1999.90;999.90;;;10.00;99.90;;;;;;5051652;28;20029;-73
2023/05/18 00:14:25;;;;;;;1999.90;999.90;;;10.00;99.90;;;;;;5051994;28;20021;-73
2023/05/18 00:16:54;;;;;;;1999.90;999.90;;;10.00;99.90;;;;;;5043175;28;20036;-79
2023/05/18 00:19:22;;;;;;;1999.90;999.90;;;9.90;99.90;;;;;;5031958;28;20026;-79
2023/05/18 00:21:50;;;;;;;1999.90;999.90;;;10.00;99.90;;;;;;5032218;28;20092;-73
2023/05/18 00:24:16;;;;;;;1999.90;999.90;;;9.90;99.90;;;;;;5032737;28;20563;-73
2023/05/18 00:26:46;;;;;;;1999.90;999.90;;;9.90;99.90;;;;;;5032480;28;20030;-79
2023/05/18 00:29:12;;;;;;;1999.90;999.90;;;9.90;99.90;;;;;;5032476;28;20559;-79
2023/05/18 00:31:39;;;;;;;1999.90;999.90;;;10.00;99.90;;;;;;5032809;28;20017;-79
2023/05/18 00:34:05;;;;;;;1999.90;999.90;;;9.90;99.90;;;;;;5032440;28;20052;-73
2023/05/18 00:36:32;;;;;;;1999.90;999.90;;;9.90;99.90;;;;;;5032483;28;20029;-73
2023/05/18 00:38:58;;;;;;;1999.90;999.90;;;9.90;99.90;;;;;;5034399;28;20021;-79
2023/05/18 00:41:25;;;;;;;1999.90;999.90;;;9.90;99.90;;;;;;5036325;28;20037;-79
2023/05/18 00:43:54;;;;;;;1999.90;999.90;;;9.80;99.90;;;;;;5035709;28;20527;-74
2023/05/18 00:46:21;;;;;;;1999.90;999.90;;;9.80;99.90;;;;;;5035349;28;20076;-79
2023/05/18 00:48:48;;;;;;;1999.90;999.90;;;9.80;99.90;;;;;;5035777;28;20102;-73
2023/05/18 00:51:14;;;;;;;1999.90;999.90;;;9.80;99.90;;;;;;5036327;28;20033;-73
2023/05/18 00:53:40;;;;;;;1999.90;999.90;;;9.80;99.90;;;;;;5036080;28;20376;-73
2023/05/18 00:56:06;;;;;;;1999.90;999.90;;;9.70;99.90;;;;;;5036277;28;20037;-79
2023/05/18 00:58:32;;;;;;;1999.90;999.90;;;9.70;99.90;;;;;;5035778;28;20036;-79
2023/05/18 01:00:57;;;;;;;1999.90;999.90;;;9.70;99.90;;;;;;5035262;28;20029;-73
2023/05/18 01:03:25;;;;;;;1999.90;999.90;;;9.70;99.90;;;;;;5035831;28;20033;-73
2023/05/18 01:05:54;;;;;;;1999.90;999.90;;;9.70;99.90;;;;;;5035592;28;20053;-79
2023/05/18 01:08:21;;;;;;;1999.90;999.90;;;9.60;99.90;;;;;;5058556;28;20064;-73
2023/05/18 01:10:58;;;;;;;1999.90;999.90;;;9.60;99.90;;;;;;5075489;28;20403;-79
2023/05/18 01:13:50;;;;;;;1999.90;999.90;;;9.60;99.90;;;;;;5075559;28;20475;-79
2023/05/18 01:16:22;;;;;;;1999.90;999.90;;;9.60;99.90;;;;;;5075527;28;20013;-73
2023/05/18 01:19:22;;;;;;;1999.90;999.90;;;9.50;99.90;;;;;;5074426;28;20117;-79
2023/05/18 01:22:11;;;;;;;1999.90;999.90;;;9.50;99.90;;;;;;5075335;28;20028;-79
2023/05/18 01:24:41;;;;;;;1999.90;999.90;;;9.50;99.90;;;;;;5075383;28;20056;-79
2023/05/18 01:27:08;;;;;;;1999.90;999.90;;;9.50;99.90;;;;;;5075237;28;20487;-73
2023/05/18 01:29:34;;;;;;;1999.90;999.90;;;9.50;99.90;;;;;;5075196;28;20388;-73
2023/05/18 01:32:00;;;;;;;1999.90;999.90;;;9.40;99.90;;;;;;5075432;28;20041;-79
2023/05/18 01:34:26;;;;;;;1999.90;999.90;;;9.40;99.90;;;;;;5074925;28;20098;-79
2023/05/18 01:36:52;;;;;;;1999.90;999.90;;;9.40;99.90;;;;;;5075088;28;20012;-75
2023/05/18 01:39:18;;;;;;;1999.90;999.90;;;9.40;99.90;;;;;;5074829;28;20043;-73
2023/05/18 01:41:57;;;;;;;1999.90;999.90;;;9.40;99.90;;;;;;5074777;28;20052;-73
2023/05/18 01:44:27;;;;;;;1999.90;999.90;;;9.40;99.90;;;;;;5075127;28;20471;-79
2023/05/18 01:46:58;;;;;;;1999.90;999.90;;;9.40;99.90;;;;;;5074788;28;20103;-73
2023/05/18 01:49:53;;;;;;;1999.90;999.90;;;9.40;99.90;;;;;;5074781;28;20035;-79
2023/05/18 01:52:30;;;;;;;1999.90;999.90;;;9.30;99.90;;;;;;5074669;28;20024;-79
2023/05/18 01:55:01;;;;;;;1999.90;999.90;;;9.30;99.90;;;;;;5074783;28;20039;-79
2023/05/18 01:57:30;;;;;;;1999.90;999.90;;;9.30;99.90;;;;;;5074878;28;20039;-73
2023/05/18 01:59:58;;;;;;;1999.90;999.90;;;9.30;99.90;;;;;;5074554;28;20021;-79
2023/05/18 02:02:25;;;;;;;1999.90;999.90;;;9.30;99.90;;;;;;5074178;28;20028;-73
2023/05/18 02:04:50;;;;;;;1999.90;999.90;;;9.30;99.90;;;;;;5074527;28;20422;-73
2023/05/18 02:07:16;;;;;;;1999.90;999.90;;;9.30;99.90;;;;;;5074119;28;20102;-73
2023/05/18 02:09:43;;;;;;;1999.90;999.90;;;9.30;99.90;;;;;;5074077;28;20432;-79
2023/05/18 02:12:09;;;;;;;1999.90;999.90;;;9.30;99.90;;;;;;5074627;28;20024;-79
2023/05/18 02:14:35;;;;;;;1999.90;999.90;;;9.30;99.90;;;;;;5074219;28;20027;-73
2023/05/18 02:17:01;;;;;;;1999.90;999.90;;;9.30;99.90;;;;;;5074139;28;20024;-79
2023/05/18 02:19:26;;;;;;;1999.90;999.90;;;9.20;99.90;;;;;;5073412;28;20082;-72
2023/05/18 02:21:52;;;;;;;1999.90;999.90;;;9.20;99.90;;;;;;5073962;28;20056;-79
2023/05/18 02:24:17;;;;;;;1999.90;999.90;;;9.20;99.90;;;;;;5074017;28;20063;-79
2023/05/18 02:26:44;;;;;;;1999.90;999.90;;;9.20;99.90;;;;;;5074316;28;20370;-79
2023/05/18 02:29:10;;;;;;;1999.90;999.90;;;9.20;99.90;;;;;;5073759;28;20020;-79
2023/05/18 02:31:40;;;;;;;1999.90;999.90;;;9.20;99.90;;;;;;5073668;28;20017;-73
2023/05/18 02:34:06;;;;;;;1999.90;999.90;;;9.20;99.90;;;;;;5073938;28;20020;-73
2023/05/18 02:36:38;;;;;;;1999.90;999.90;;;9.20;99.90;;;;;;5073726;28;20364;-79
2023/05/18 02:39:05;;;;;;;1999.90;999.90;;;9.20;99.90;;;;;;5073739;28;20028;-79
2023/05/18 02:41:32;;;;;;;1999.90;999.90;;;9.20;99.90;;;;;;5073713;28;20029;-73
2023/05/18 02:43:57;;;;;;;1999.90;999.90;;;9.20;99.90;;;;;;5073805;28;20056;-79
2023/05/18 02:46:23;;;;;;;1999.90;999.90;;;9.20;99.90;;;;;;5073685;28;20056;-73
2023/05/18 02:48:49;;;;;;;1999.90;999.90;;;9.20;99.90;;;;;;5073762;28;20086;-73
2023/05/18 02:51:15;;;;;;;1999.90;999.90;;;9.20;99.90;;;;;;5073650;28;20024;-79
2023/05/18 02:53:42;;;;;;;1999.90;999.90;;;9.20;99.90;;;;;;5073280;28;20542;-79
2023/05/18 02:56:08;;;;;;;1999.90;999.90;;;9.10;99.90;;;;;;5073782;28;20130;-79
2023/05/18 02:58:34;;;;;;;1999.90;999.90;;;9.10;99.90;;;;;;5073454;28;20029;-73
2023/05/18 03:01:02;;;;;;;1999.90;999.90;;;9.10;99.90;;;;;;5072875;28;20483;-79
2023/05/18 03:03:28;;;;;;;1999.90;999.90;;;9.10;99.90;;;;;;5072932;28;20017;-79
2023/05/18 03:05:54;;;;;;;1999.90;999.90;;;9.10;99.90;;;;;;5073145;28;20028;-79
2023/05/18 03:08:22;;;;;;;1999.90;999.90;;;9.10;99.90;;;;;;5073142;28;20610;-73
2023/05/18 03:10:49;;;;;;;1999.90;999.90;;;9.00;99.90;;;;;;5072935;28;20464;-73
2023/05/18 03:13:14;;;;;;;1999.90;999.90;;;9.00;99.90;;;;;;5073365;28;20020;-79
2023/05/18 03:15:40;;;;;;;1999.90;999.90;;;9.00;99.90;;;;;;5073462;28;20035;-79
2023/05/18 03:18:05;;;;;;;1999.90;999.90;;;9.00;99.90;;;;;;5072947;28;20107;-79
2023/05/18 03:20:32;;;;;;;1999.90;999.90;;;9.00;99.90;;;;;;5072636;28;20485;-79
2023/05/18 03:22:57;;;;;;;1999.90;999.90;;;8.90;99.90;;;;;;5055118;28;20021;-73
2023/05/18 03:25:24;;;;;;;1999.90;999.90;;;8.90;99.90;;;;;;5073215;28;20164;-79
2023/05/18 03:27:51;;;;;;;1999.90;999.90;;;8.90;99.90;;;;;;5072991;28;20024;-73
2023/05/18 03:30:18;;;;;;;1999.90;999.90;;;8.90;99.90;;;;;;5073179;28;20052;-79
2023/05/18 03:32:45;;;;;;;1999.90;999.90;;;8.90;99.90;;;;;;5073244;28;20020;-79
2023/05/18 03:35:10;;;;;;;1999.90;999.90;;;8.90;99.90;;;;;;5073191;28;20024;-79
2023/05/18 03:37:36;;;;;;;1999.90;999.90;;;8.80;99.90;;;;;;5072916;28;20070;-73
2023/05/18 03:40:12;;;;;;;1999.90;999.90;;;8.80;99.90;;;;;;5073123;28;20029;-73
2023/05/18 03:42:38;;;;;;;1999.90;999.90;;;8.80;99.90;;;;;;5069823;28;20029;-79
2023/05/18 03:45:05;;;;;;;1999.90;999.90;;;8.80;99.90;;;;;;5072610;28;20035;-79
2023/05/18 03:47:31;;;;;;;1999.90;999.90;;;8.80;99.90;;;;;;5072816;28;20016;-79
2023/05/18 03:49:56;;;;;;;1999.90;999.90;;;8.80;99.90;;;;;;5054981;28;20510;-73
2023/05/18 03:52:22;;;;;;;1999.90;999.90;;;8.80;99.90;;;;;;5072760;28;20028;-73
2023/05/18 03:54:49;;;;;;;1999.90;999.90;;;8.80;99.90;;;;;;5072769;28;20098;-79
2023/05/18 03:57:18;;;;;;;1999.90;999.90;;;8.80;99.90;;;;;;5073034;28;20032;-73
2023/05/18 03:59:44;;;;;;;1999.90;999.90;;;8.80;99.90;;;;;;5072649;28;20025;-73
2023/05/18 04:02:10;;;;;;;1999.90;999.90;;;8.80;99.90;;;;;;5072625;28;20488;-73
2023/05/18 04:04:40;;;;;;;1999.90;999.90;;;8.80;99.90;;;;;;5072938;28;20071;-73
2023/05/18 04:07:09;;;;;;;1999.90;999.90;;;8.80;99.90;;;;;;5072615;28;20211;-79
2023/05/18 04:09:35;;;;;;;1999.90;999.90;;;8.80;99.90;;;;;;5072538;28;20107;-72
2023/05/18 04:12:01;;;;;;;1999.90;999.90;;;8.80;99.90;;;;;;5072624;28;20035;-73
2023/05/18 04:14:27;;;;;;;1999.90;999.90;;;8.80;99.90;;;;;;5075351;28;20051;-79
2023/05/18 04:16:55;;;;;;;1999.90;999.90;;;8.80;99.90;;;;;;5076575;28;20024;-73
2023/05/18 04:19:21;;;;;;;1999.90;999.90;;;8.70;99.90;;;;;;5076427;28;20020;-73
2023/05/18 04:21:47;;;;;;;1999.90;999.90;;;8.70;99.90;;;;;;5075521;28;20029;-79
2023/05/18 04:24:13;;;;;;;1999.90;999.90;;;8.70;99.90;;;;;;5076439;28;20028;-79
2023/05/18 04:26:41;;;;;;;1999.90;999.90;;;8.70;99.90;;;;;;5076599;28;20025;-79
2023/05/18 04:29:09;;;;;;;1999.90;999.90;;;8.70;99.90;;;;;;5076494;28;20042;-73
2023/05/18 04:31:41;;;;;;;1999.90;999.90;;;8.70;99.90;;;;;;5075997;28;20019;-73
2023/05/18 04:34:07;;;;;;;1999.90;999.90;;;8.70;99.90;;;;;;5058428;28;20399;-79
2023/05/18 04:36:33;;;;;;;1999.90;999.90;;;8.70;99.90;;;;;;5076275;28;20013;-79
2023/05/18 04:39:02;;;;;;;1999.90;999.90;;;8.70;99.90;;;;;;5076091;28;20395;-79
2023/05/18 04:41:28;;;;;;;1999.90;999.90;;;8.70;99.90;;;;;;5076518;28;20021;-78
2023/05/18 04:43:53;;;;;;;1999.90;999.90;;;8.70;99.90;;;;;;5075701;28;20043;-79
2023/05/18 04:46:21;;;;;;;1999.90;999.90;;;8.70;99.90;;;;;;5075885;28;20021;-79
2023/05/18 04:48:48;;;;;;;1999.90;999.90;;;8.80;99.90;;;;;;5075352;28;20029;-79
2023/05/18 04:51:20;;;;;;;1999.90;999.90;;;8.90;99.90;;;;;;5076125;28;20025;-79
2023/05/18 04:53:48;;;;;;;1999.90;999.90;;;8.90;99.90;;;;;;5075564;28;20395;-79
2023/05/18 04:56:16;;;;;;;1999.90;999.90;;;9.00;99.90;;;;;;5075688;28;20100;-73
2023/05/18 04:58:44;;;;;;;1999.90;999.90;;;9.00;99.90;;;;;;5075497;28;20028;-78
2023/05/18 05:01:11;;;;;;;1999.90;999.90;;;9.00;99.90;;;;;;5075471;28;20023;-79
2023/05/18 05:03:37;;;;;;;1999.90;999.90;;;9.00;99.90;;;;;;5075510;28;20523;-79
2023/05/18 05:06:02;;;;;;;1999.90;999.90;;;9.00;99.90;;;;;;5075924;28;20063;-79
2023/05/18 05:08:28;;;;;;;1999.90;999.90;;;9.00;99.90;;;;;;5075017;28;20070;-72
2023/05/18 05:10:54;;;;;;;1999.90;999.90;;;9.00;99.90;;;;;;5075366;28;20127;-72
2023/05/18 05:13:19;;;;;;;1999.90;999.90;;;9.10;99.90;;;;;;5075398;28;20028;-79
2023/05/18 05:15:45;;;;;;;1999.90;999.90;;;9.10;99.90;;;;;;5074964;28;20020;-79
2023/05/18 05:18:10;;;;;;;1999.90;999.90;;;9.20;99.90;;;;;;5055314;28;20087;-73
2023/05/18 05:20:36;;;;;;;1999.90;999.90;;;9.20;99.90;;;;;;5055304;28;20021;-73
2023/05/18 05:23:02;;;;;;;1999.90;999.90;;;9.30;99.90;;;;;;5054403;28;20029;-73
2023/05/18 05:25:27;;;;;;;1999.90;999.90;;;9.40;99.90;;;;;;5054149;28;20052;-79
2023/05/18 05:27:53;;;;;;;1999.90;999.90;;;9.40;99.90;;;;;;5055119;28;20033;-79
2023/05/18 05:30:18;;;;;;;1999.90;999.90;;;9.50;99.90;;;;;;5055634;28;20135;-79
2023/05/18 05:32:44;;;;;;;1999.90;999.90;;;9.60;99.90;;;;;;5055152;28;20029;-73
2023/05/18 05:35:10;;;;;;;1999.90;999.90;;;9.60;99.90;;;;;;5054915;28;20096;-73
2023/05/18 05:37:35;;;;;;;1999.90;999.90;;;9.60;99.90;;;;;;5054905;28;20025;-73
2023/05/18 05:40:02;;;;;;;1999.90;999.90;;;9.70;99.90;;;;;;5054902;28;20021;-79
2023/05/18 05:42:28;;;;;;;1999.90;999.90;;;9.80;99.90;;;;;;5055192;28;20048;-79
2023/05/18 05:44:54;;;;;;;1999.90;999.90;;;9.90;99.90;;;;;;5054896;28;20060;-79
2023/05/18 05:47:20;;;;;;;1999.90;999.90;;;10.00;99.90;;;;;;5054691;28;20458;-79
2023/05/18 05:49:45;;;;;;;1999.90;999.90;;;10.00;99.90;;;;;;5054843;28;20025;-79
2023/05/18 05:52:11;;;;;;;1999.90;999.90;;;10.10;99.90;;;;;;5054547;28;20025;-79
2023/05/18 05:54:37;;;;;;;1999.90;999.90;;;10.10;99.90;;;;;;5054556;28;20109;-73
2023/05/18 05:57:02;;;;;;;1999.90;999.90;;;10.30;99.90;;;;;;5054460;28;20032;-79
2023/05/18 05:59:28;;;;;;;1999.90;999.90;;;10.30;99.90;;;;;;5054276;28;20029;-73
2023/05/18 06:01:54;;;;;;;1999.90;999.90;;;10.30;99.90;;;;;;5054167;28;20052;-73
2023/05/18 06:04:19;;;;;;;1999.90;999.90;;;10.40;99.90;;;;;;5054385;28;20028;-73
2023/05/18 06:06:46;;;;;;;1999.90;999.90;;;10.50;99.90;;;;;;5054498;28;20049;-79
2023/05/18 06:09:12;;;;;;;1999.90;999.90;;;10.60;99.90;;;;;;5067331;28;20107;-73
2023/05/18 06:11:38;;;;;;;1999.90;999.90;;;10.70;99.90;;;;;;5074130;28;20100;-79
2023/05/18 06:14:04;;;;;;;1999.90;999.90;;;10.80;99.90;;;;;;5074219;28;20450;-72
2023/05/18 06:16:29;;;;;;;1999.90;999.90;;;10.90;99.90;;;;;;5074271;28;20487;-79
2023/05/18 06:18:55;;;;;;;1999.90;999.90;;;10.90;99.90;;;;;;5074045;28;20035;-78
2023/05/18 06:21:21;;;;;;;1999.90;999.90;;;11.10;99.90;;;;;;5074672;28;20024;-79
2023/05/18 06:23:46;;;;;;;1999.90;999.90;;;11.20;99.90;;;;;;5073133;28;20090;-78
2023/05/18 06:26:12;;;;;;;1999.90;999.90;;;11.30;99.90;;;;;;5074388;28;20024;-73
2023/05/18 06:28:38;;;;;;;1999.90;999.90;;;11.40;99.90;;;;;;5073923;28;20039;-79
2023/05/18 06:31:04;;;;;;;1999.90;999.90;;;11.50;99.90;;;;;;5074100;28;20100;-79
2023/05/18 06:33:30;;;;;;;1999.90;999.90;;;11.60;99.90;;;;;;5055938;28;20028;-79
2023/05/18 06:35:56;;;;;;;1999.90;999.90;;;11.70;99.90;;;;;;5073744;28;20025;-79
2023/05/18 06:38:21;;;;;;;1999.90;999.90;;;11.70;99.90;;;;;;5074202;28;20020;-73
2023/05/18 06:40:47;;;;;;;1999.90;999.90;;;11.90;99.90;;;;;;5072423;28;20391;-74
2023/05/18 06:43:12;;;;;;;1999.90;999.90;;;12.10;99.90;;;;;;5072772;28;20468;-79
2023/05/18 06:45:38;;;;;;;1999.90;999.90;;;12.20;99.90;;;;;;5073738;28;20048;-79
2023/05/18 06:48:04;;;;;;;1999.90;999.90;;;12.30;99.90;;;;;;5073547;28;20693;-73
2023/05/18 06:50:29;;;;;;;1999.90;999.90;;;12.40;99.90;;;;;;5055652;28;20028;-79
2023/05/18 06:52:55;;;;;;;1999.90;999.90;;;12.40;99.90;;;;;;5073901;28;20028;-73
2023/05/18 06:55:21;;;;;;;1999.90;999.90;;;12.60;99.90;;;;;;5073565;28;20052;-73
2023/05/18 06:57:46;;;;;;;1999.90;999.90;;;12.70;99.90;;;;;;5073604;28;20434;-79
2023/05/18 07:00:12;;;;;;;1999.90;999.90;;;12.70;99.90;;;;;;5073296;28;20479;-79
2023/05/18 07:02:38;;;;;;;1999.90;999.90;;;13.00;99.90;;;;;;5073349;28;20020;-79
2023/05/18 07:05:07;;;;;;;1999.90;999.90;;;13.20;99.90;;;;;;5073504;28;20033;-73
2023/05/18 07:07:35;;;;;;;1999.90;999.90;;;13.20;99.90;;;;;;5073196;28;20093;-73
2023/05/18 07:10:01;;;;;;;1999.90;999.90;;;13.20;99.90;;;;;;5073196;28;20475;-79
2023/05/18 07:12:28;;;;;;;1999.90;999.90;;;13.50;99.90;;;;;;5073044;28;20096;-79
2023/05/18 07:14:53;;;;;;;1999.90;999.90;;;13.50;99.90;;;;;;5072458;28;20111;-73
2023/05/18 07:17:19;;;;;;;1999.90;999.90;;;13.80;99.90;;;;;;5060082;28;20025;-73
2023/05/18 07:19:44;;;;;;;1999.90;999.90;;;13.80;99.90;;;;;;5054509;28;20108;-73
2023/05/18 07:22:10;;;;;;;1999.90;999.90;;;13.90;99.90;;;;;;5073439;28;20029;-79
2023/05/18 07:24:36;;;;;;;1999.90;999.90;;;14.30;99.90;;;;;;5071989;28;20028;-79
2023/05/18 07:27:01;;;;;;;1999.90;999.90;;;14.50;99.90;;;;;;5073456;28;20078;-79
2023/05/18 07:29:28;;;;;;;1999.90;999.90;;;14.80;99.90;;;;;;5072911;28;20074;-79
2023/05/18 07:31:54;;;;;;;1999.90;999.90;;;14.70;99.90;;;;;;5071933;28;20032;-73
2023/05/18 07:34:19;;;;;;;1999.90;999.90;;;15.00;99.90;;;;;;5073588;28;20035;-73
2023/05/18 07:36:45;;;;;;;1999.90;999.90;;;15.10;99.90;;;;;;5073122;28;20023;-80
2023/05/18 07:39:17;;;;;;;1999.90;999.90;;;15.70;99.90;;;;;;5072837;28;20032;-74
2023/05/18 07:41:46;;;;;;;1999.90;999.90;;;17.00;99.90;;;;;;5073230;28;20060;-79
2023/05/18 07:44:12;;;;;;;1999.90;999.90;;;18.10;99.90;;;;;;5073107;28;20029;-79
2023/05/18 07:46:38;;;;;;;1999.90;999.90;;;18.70;99.90;;;;;;5073116;28;20017;-79
2023/05/18 07:49:03;;;;;;;1999.90;999.90;;;19.20;99.90;;;;;;5075174;28;20036;-79
2023/05/18 07:51:29;;;;;;;1999.90;999.90;;;19.60;99.90;;;;;;5076985;28;20025;-79
2023/05/18 07:53:55;;;;;;;1999.90;999.90;;;20.50;99.90;;;;;;5077153;28;20020;-73
2023/05/18 07:56:21;;;;;;;1999.90;999.90;;;20.90;99.90;;;;;;5076801;28;20020;-80
2023/05/18 07:58:47;;;;;;;1999.90;999.90;;;20.90;99.90;;;;;;5077163;28;20024;-74
2023/05/18 08:01:12;;;;;;;1999.90;999.90;;;21.40;99.90;;;;;;5076539;28;20592;-80
2023/05/18 08:03:38;;;;;;;1999.90;999.90;;;21.90;99.90;;;;;;5076906;28;20032;-80
2023/05/18 08:06:03;;;;;;;1999.90;999.90;;;21.90;99.90;;;;;;5076872;28;20102;-80
2023/05/18 08:08:29;;;;;;;1999.90;999.90;;;22.50;99.90;;;;;;5076479;28;20052;-74
2023/05/18 08:10:55;;;;;;;1999.90;999.90;;;23.20;99.90;;;;;;5076809;28;20131;-74
2023/05/18 08:13:21;;;;;;;1999.90;999.90;;;23.10;99.90;;;;;;5076704;28;20029;-74
2023/05/18 08:15:46;;;;;;;1999.90;999.90;;;23.70;99.90;;;;;;5075632;28;20017;-80
2023/05/18 08:18:12;;;;;;;1999.90;999.90;;;24.00;99.90;;;;;;5056979;28;20032;-80
2023/05/18 08:20:38;;;;;;;1999.90;999.90;;;24.40;99.90;;;;;;5056596;28;20022;-80
2023/05/18 08:23:04;;;;;;;1999.90;999.90;;;24.60;99.70;;;;;;5056623;28;20032;-80
2023/05/18 08:25:29;;;;;;;1999.90;999.90;;;23.90;99.30;;;;;;5055306;28;20392;-74
2023/05/18 08:27:55;;;;;;;1999.90;999.90;;;23.20;99.40;;;;;;5056137;28;20498;-80
2023/05/18 08:30:20;;;;;;;1999.90;999.90;;;22.80;99.20;;;;;;5056479;28;20025;-80
2023/05/18 08:32:47;;;;;;;1999.90;999.90;;;23.80;99.10;;;;;;5056452;28;20517;-80
2023/05/18 08:35:12;;;;;;;1999.90;999.90;;;23.60;99.80;;;;;;5056277;28;20437;-74
2023/05/18 08:37:38;;;;;;;1999.90;999.90;;;24.00;99.70;;;;;;5056245;28;20024;-74
2023/05/18 08:40:10;;;;;;;1999.90;999.90;;;24.70;97.30;;;;;;5056182;28;20028;-74
2023/05/18 08:42:43;;;;;;;1999.90;999.90;;;24.00;95.40;;;;;;5056407;28;20036;-80
2023/05/18 08:45:35;;;;;;;1999.90;999.90;;;24.90;96.20;;;;;;5056421;28;20443;-80
2023/05/18 08:48:02;;;;;;;1999.90;999.90;;;24.40;95.50;;;;;;5055908;28;20033;-76
2023/05/18 08:50:30;;;;;;;1999.90;999.90;;;24.90;95.10;;;;;;5056281;28;20464;-81
2023/05/18 08:53:00;;;;;;;1999.90;999.90;;;25.30;95.20;;;;;;5055840;28;20036;-80
2023/05/18 08:55:27;;;;;;;1999.90;999.90;;;25.20;93.90;;;;;;5055771;28;20036;-73
2023/05/18 08:57:56;;;;;;;1999.90;999.90;;;24.50;93.70;;;;;;5055688;28;20118;-80
2023/05/18 09:00:23;;;;;;;1999.90;999.90;;;25.00;94.60;;;;;;5055583;28;20024;-74
2023/05/18 09:02:49;;;;;;;1999.90;999.90;;;25.20;93.00;;;;;;5055749;28;20017;-74
2023/05/18 09:05:16;;;;;;;1999.90;999.90;;;25.90;92.50;;;;;;5055685;28;20052;-81
2023/05/18 09:07:42;;;;;;;1999.90;999.90;;;25.60;92.20;;;;;;5055925;28;20389;-80
2023/05/18 09:10:12;;;;;;;1999.90;999.90;;;25.20;91.50;;;;;;5075399;28;20029;-80
2023/05/18 09:12:40;;;;;;;1999.90;999.90;;;24.50;92.10;;;;;;5075609;28;20024;-74
2023/05/18 09:15:08;;;;;;;1999.90;999.90;;;24.80;91.00;;;;;;5075819;28;20012;-74
2023/05/18 09:17:34;;;;;;;1999.90;999.90;;;25.20;92.20;;;;;;5075231;28;20108;-74
2023/05/18 09:20:00;;;;;;;1999.90;999.90;;;25.70;91.40;;;;;;5075807;28;20052;-80
2023/05/18 09:22:26;;;;;;;1999.90;999.90;;;25.30;92.30;;;;;;5075493;28;20032;-81
2023/05/18 09:24:52;;;;;;;1999.90;999.90;;;26.10;91.30;;;;;;5074528;28;20499;-74
2023/05/18 09:27:18;;;;;;;1999.90;999.90;;;26.40;90.30;;;;;;5074980;28;20032;-74
2023/05/18 09:29:55;;;;;;;1999.90;999.90;;;26.60;90.30;;;;;;5075002;28;20543;-74
2023/05/18 09:32:22;;;;;;;1999.90;999.90;;;27.10;91.00;;;;;;5075262;28;20459;-81
2023/05/18 09:34:48;;;;;;;1999.90;999.90;;;27.20;88.80;;;;;;5075466;28;20107;-74
2023/05/18 09:37:20;;;;;;;1999.90;999.90;;;26.60;88.90;;;;;;5075015;28;20021;-81
2023/05/18 09:39:59;;;;;;;1999.90;999.90;;;26.50;86.20;;;;;;5074687;28;20035;-74
2023/05/18 09:42:39;;;;;;;1999.90;999.90;;;26.10;88.20;;;;;;5074986;28;20027;-74
2023/05/18 09:45:19;;;;;;;1999.90;999.90;;;26.10;88.90;;;;;;5075164;28;20021;-81
2023/05/18 09:47:45;;;;;;;1999.90;999.90;;;25.80;89.00;;;;;;5075028;28;20036;-80
2023/05/18 09:50:11;;;;;;;1999.90;999.90;;;26.00;88.80;;;;;;5074743;28;20017;-81
2023/05/18 09:52:43;;;;;;;1999.90;999.90;;;25.80;87.80;;;;;;5075108;28;20043;-74
2023/05/18 09:55:11;;;;;;;1999.90;999.90;;;25.10;88.00;;;;;;5074611;28;20031;-74
2023/05/18 09:57:47;;;;;;;1999.90;999.90;;;24.80;87.60;;;;;;5074786;28;20031;-74
2023/05/18 10:00:18;;;;;;;1999.90;999.90;;;25.40;89.00;;;;;;5074430;28;20020;-81
2023/05/18 10:02:51;;;;;;;1999.90;999.90;;;25.90;90.50;;;;;;5074481;28;20472;-81
2023/05/18 10:05:30;;;;;;;1999.90;999.90;;;25.60;88.80;;;;;;5075037;28;20032;-74
2023/05/18 10:07:56;;;;;;;1999.90;999.90;;;25.70;88.60;;;;;;5074287;28;20534;-74
2023/05/18 10:10:25;;;;;;;1999.90;999.90;;;24.90;87.00;;;;;;5074316;28;20364;-74
2023/05/18 10:12:52;;;;;;;1999.90;999.90;;;25.70;88.40;;;;;;5073821;28;20519;-80
2023/05/18 10:15:20;;;;;;;1999.90;999.90;;;25.20;87.60;;;;;;5074718;28;20476;-81
2023/05/18 10:17:47;;;;;;;1999.90;999.90;;;24.60;90.10;;;;;;5074056;28;20052;-80
2023/05/18 10:20:25;;;;;;;1999.90;999.90;;;24.20;90.30;;;;;;5074369;28;20036;-80
2023/05/18 10:22:53;;;;;;;1999.90;999.90;;;23.90;90.10;;;;;;5073886;28;20052;-74
2023/05/18 10:25:25;;;;;;;1999.90;999.90;;;23.70;91.20;;;;;;5072886;28;20492;-81
2023/05/18 10:27:56;;;;;;;1999.90;999.90;;;22.90;91.80;;;;;;5074074;28;20458;-80
2023/05/18 10:30:22;;;;;;;1999.90;999.90;;;22.40;93.20;;;;;;5074342;28;20016;-80
2023/05/18 10:32:50;;;;;;;1999.90;999.90;;;22.70;93.30;;;;;;5074083;28;20162;-74
2023/05/18 10:35:17;;;;;;;1999.90;999.90;;;22.70;93.30;;;;;;5074182;28;20021;-74
2023/05/18 10:37:47;;;;;;;1999.90;999.90;;;22.30;92.20;;;;;;5073827;28;20024;-80
2023/05/18 10:40:14;;;;;;;1999.90;999.90;;;22.20;92.50;;;;;;5073968;28;20020;-80
2023/05/18 10:42:40;;;;;;;1999.90;999.90;;;21.90;94.20;;;;;;5073740;28;20076;-74
2023/05/18 10:45:08;;;;;;;1999.90;999.90;;;22.00;95.60;;;;;;5073149;28;20037;-74
2023/05/18 10:47:38;;;;;;;1999.90;999.90;;;21.90;93.10;;;;;;5073623;28;20103;-74
2023/05/18 10:50:04;;;;;;;1999.90;999.90;;;21.90;94.20;;;;;;5055597;28;20430;-74
2023/05/18 10:52:31;;;;;;;1999.90;999.90;;;22.10;94.20;;;;;;5073731;28;20086;-80
2023/05/18 10:55:00;;;;;;;1999.90;999.90;;;22.50;94.40;;;;;;5055916;28;20357;-74
2023/05/18 10:57:33;;;;;;;1999.90;999.90;;;22.30;93.90;;;;;;5073430;28;20090;-80
2023/05/18 10:59:59;;;;;;;1999.90;999.90;;;22.30;92.80;;;;;;5073617;28;20074;-74
2023/05/18 11:02:26;;;;;;;1999.90;999.90;;;22.90;94.60;;;;;;5073247;28;20040;-80
2023/05/18 11:04:52;;;;;;;1999.90;999.90;;;22.40;92.70;;;;;;5073664;28;20029;-74
2023/05/18 11:07:20;;;;;;;1999.90;999.90;;;22.50;94.10;;;;;;5073285;28;20480;-80
2023/05/18 11:09:48;;;;;;;1999.90;999.90;;;22.10;93.20;;;;;;5073120;28;20029;-80
2023/05/18 11:12:16;;;;;;;1999.90;999.90;;;22.50;94.00;;;;;;5073075;28;20063;-74
2023/05/18 11:14:53;;;;;;;1999.90;999.90;;;22.00;92.90;;;;;;5073398;28;20056;-74
2023/05/18 11:17:20;;;;;;;1999.90;999.90;;;22.30;94.30;;;;;;5073429;28;20020;-81
2023/05/18 11:20:07;;;;;;;1999.90;999.90;;;23.00;93.00;;;;;;5072629;28;20531;-74
2023/05/18 11:23:13;;;;;;;1999.90;999.90;;;23.00;91.90;;;;;;5072857;28;20028;-81
2023/05/18 11:25:42;;;;;;;1999.90;999.90;;;22.60;92.50;;;;;;5060962;28;20098;-74
2023/05/18 11:28:10;;;;;;;1999.90;999.90;;;22.70;92.10;;;;;;5072268;28;20050;-80
2023/05/18 11:30:35;;;;;;;1999.90;999.90;;;23.40;92.50;;;;;;5054990;28;20029;-81
2023/05/18 11:33:07;;;;;;;1999.90;999.90;;;24.10;91.00;;;;;;5072955;28;20488;-80
2023/05/18 11:35:37;;;;;;;1999.90;999.90;;;23.20;90.20;;;;;;5073639;28;20020;-80
2023/05/18 11:38:09;;;;;;;1999.90;999.90;;;23.00;90.50;;;;;;5072954;28;20024;-74
2023/05/18 11:40:48;;;;;;;1999.90;999.90;;;23.80;93.40;;;;;;5073024;28;20024;-74
2023/05/18 11:43:20;;;;;;;1999.90;999.90;;;24.40;92.50;;;;;;5073258;28;20477;-80
2023/05/18 11:45:56;;;;;;;1999.90;999.90;;;24.00;90.60;;;;;;5073059;28;20428;-74
2023/05/18 11:48:24;;;;;;;1999.90;999.90;;;24.10;90.80;;;;;;5073045;28;20037;-80
2023/05/18 11:50:53;;;;;;;1999.90;999.90;;;24.00;91.40;;;;;;5073189;28;20048;-74
2023/05/18 11:53:21;;;;;;;1999.90;999.90;;;24.40;90.50;;;;;;5073616;28;20032;-74
2023/05/18 11:55:55;;;;;;;1999.90;999.90;;;24.80;90.00;;;;;;5073010;28;20036;-81
2023/05/18 11:58:23;;;;;;;1999.90;999.90;;;24.40;89.10;;;;;;5073043;28;20112;-81
2023/05/18 12:00:50;;;;;;;1999.90;999.90;;;23.60;90.30;;;;;;5072570;28;20024;-80
2023/05/18 12:03:16;;;;;;;1999.90;999.90;;;22.60;92.00;;;;;;5073274;28;20032;-74
2023/05/18 12:05:47;;;;;;;1999.90;999.90;;;22.40;92.90;;;;;;5072833;28;20020;-74
2023/05/18 12:08:16;;;;;;;1999.90;999.90;;;22.50;91.80;;;;;;5072583;28;20098;-80